createdAt,value
2023-04-21T00:00:20.697Z,510.00
2023-04-21T00:01:20.749Z,515.00
2023-04-21T00:02:20.870Z,508.00
2023-04-21T00:03:21.106Z,510.00
2023-04-21T00:04:21.063Z,509.00
2023-04-21T00:05:21.256Z,511.00
2023-04-21T00:06:21.055Z,510.00
2023-04-21T00:07:21.110Z,513.00
2023-04-21T00:08:21.189Z,512.00
2023-04-21T00:09:21.491Z,512.00
2023-04-21T00:10:21.297Z,506.00
2023-04-21T00:11:21.345Z,505.00
2023-04-21T00:12:21.431Z,507.00
2023-04-21T00:13:21.485Z,507.00
2023-04-21T00:14:21.572Z,507.00
2023-04-21T00:15:21.601Z,505.00
2023-04-21T00:16:21.719Z,504.00
2023-04-21T00:17:21.715Z,508.00
2023-04-21T00:18:21.769Z,505.00
2023-04-21T00:19:21.853Z,502.00
2023-04-21T00:20:21.900Z,507.00
2023-04-21T00:21:21.985Z,506.00
2023-04-21T00:22:22.028Z,505.00
2023-04-21T00:23:22.086Z,507.00
2023-04-21T00:24:22.125Z,509.00
2023-04-21T00:25:22.186Z,508.00
2023-04-21T00:26:22.238Z,509.00
2023-04-21T00:27:22.302Z,502.00
2023-04-21T00:28:22.368Z,505.00
2023-04-21T00:29:22.444Z,511.00
2023-04-21T00:30:22.480Z,510.00
2023-04-21T00:31:22.575Z,509.00
2023-04-21T00:32:22.679Z,513.00
2023-04-21T00:33:22.696Z,505.00
2023-04-21T00:34:22.748Z,504.00
2023-04-21T00:35:22.809Z,504.00
2023-04-21T00:36:22.888Z,510.00
2023-04-21T00:37:22.946Z,510.00
2023-04-21T00:38:23.024Z,505.00
2023-04-21T00:39:23.047Z,506.00
2023-04-21T00:40:23.121Z,510.00
2023-04-21T00:41:23.172Z,506.00
2023-04-21T00:42:23.244Z,510.00
2023-04-21T00:43:23.308Z,507.00
2023-04-21T00:44:23.396Z,505.00
2023-04-21T00:45:23.434Z,513.00
2023-04-21T00:46:23.491Z,511.00
2023-04-21T00:47:23.595Z,503.00
2023-04-21T00:48:23.588Z,511.00
2023-04-21T00:49:23.647Z,508.00
2023-04-21T00:50:23.701Z,507.00
2023-04-21T00:51:23.743Z,502.00
2023-04-21T00:52:23.824Z,511.00
2023-04-21T00:53:23.896Z,500.00
2023-04-21T00:54:23.913Z,504.00
2023-04-21T00:55:24.002Z,507.00
2023-04-21T00:56:24.086Z,504.00
2023-04-21T00:57:24.134Z,510.00
2023-04-21T00:58:24.181Z,507.00
2023-04-21T00:59:24.263Z,508.00
2023-04-21T01:00:24.285Z,502.00
2023-04-21T01:01:24.548Z,505.00
2023-04-21T01:02:24.626Z,515.00
2023-04-21T01:03:24.590Z,510.00
2023-04-21T01:04:24.625Z,509.00
2023-04-21T01:05:24.606Z,504.00
2023-04-21T01:06:24.689Z,505.00
2023-04-21T01:07:24.752Z,507.00
2023-04-21T01:08:24.795Z,500.00
2023-04-21T01:09:24.858Z,508.00
2023-04-21T01:10:24.924Z,508.00
2023-04-21T01:11:25.429Z,508.00
2023-04-21T01:12:25.061Z,504.00
2023-04-21T01:13:25.083Z,505.00
2023-04-21T01:14:25.131Z,507.00
2023-04-21T01:15:25.157Z,506.00
2023-04-21T01:16:25.267Z,506.00
2023-04-21T01:17:25.265Z,509.00
2023-04-21T01:18:25.334Z,515.00
2023-04-21T01:19:25.408Z,507.00
2023-04-21T01:20:25.451Z,508.00
2023-04-21T01:21:25.478Z,507.00
2023-04-21T01:22:25.531Z,507.00
2023-04-21T01:23:25.605Z,507.00
2023-04-21T01:24:25.634Z,514.00
2023-04-21T01:25:25.696Z,506.00
2023-04-21T01:26:25.733Z,505.00
2023-04-21T01:27:25.778Z,507.00
2023-04-21T01:28:25.840Z,506.00
2023-04-21T01:29:25.898Z,509.00
2023-04-21T01:30:25.933Z,502.00
2023-04-21T01:31:25.947Z,508.00
2023-04-21T01:32:26.131Z,508.00
2023-04-21T01:33:25.990Z,510.00
2023-04-21T01:34:26.029Z,513.00
2023-04-21T01:35:26.047Z,507.00
2023-04-21T01:36:26.107Z,507.00
2023-04-21T01:37:26.106Z,504.00
2023-04-21T01:38:26.142Z,506.00
2023-04-21T01:39:26.171Z,510.00
2023-04-21T01:40:26.186Z,503.00
2023-04-21T01:41:26.186Z,508.00
2023-04-21T01:42:26.223Z,502.00
2023-04-21T01:43:26.239Z,504.00
2023-04-21T01:44:26.231Z,510.00
2023-04-21T01:45:26.251Z,508.00
2023-04-21T01:46:26.334Z,511.00
2023-04-21T01:47:26.269Z,504.00
2023-04-21T01:48:26.271Z,504.00
2023-04-21T01:49:26.301Z,506.00
2023-04-21T01:50:26.328Z,503.00
2023-04-21T01:51:26.352Z,501.00
2023-04-21T01:52:26.895Z,505.00
2023-04-21T01:53:26.371Z,507.00
2023-04-21T01:54:26.430Z,506.00
2023-04-21T01:55:26.436Z,505.00
2023-04-21T01:56:26.467Z,506.00
2023-04-21T01:57:26.485Z,501.00
2023-04-21T01:58:26.509Z,509.00
2023-04-21T01:59:26.512Z,505.00
2023-04-21T02:00:26.577Z,510.00
2023-04-21T02:01:26.605Z,506.00
2023-04-21T02:02:26.722Z,507.00
2023-04-21T02:03:26.743Z,511.00
2023-04-21T02:04:26.811Z,501.00
2023-04-21T02:05:26.712Z,503.00
2023-04-21T02:06:26.707Z,504.00
2023-04-21T02:07:26.763Z,503.00
2023-04-21T02:08:26.785Z,505.00
2023-04-21T02:09:26.772Z,508.00
2023-04-21T02:10:26.781Z,506.00
2023-04-21T02:11:26.801Z,508.00
2023-04-21T02:12:26.849Z,506.00
2023-04-21T02:13:26.815Z,509.00
2023-04-21T02:14:26.827Z,513.00
2023-04-21T02:15:26.961Z,508.00
2023-04-21T02:16:26.906Z,514.00
2023-04-21T02:17:26.878Z,506.00
2023-04-21T02:18:26.841Z,510.00
2023-04-21T02:19:26.857Z,508.00
2023-04-21T02:20:26.881Z,509.00
2023-04-21T02:21:26.852Z,505.00
2023-04-21T02:22:26.840Z,509.00
2023-04-21T02:23:26.863Z,509.00
2023-04-21T02:24:26.836Z,504.00
2023-04-21T02:25:26.849Z,503.00
2023-04-21T02:26:26.827Z,508.00
2023-04-21T02:27:26.818Z,507.00
2023-04-21T02:28:26.821Z,510.00
2023-04-21T02:29:26.831Z,503.00
2023-04-21T02:30:26.791Z,506.00
2023-04-21T02:31:26.867Z,513.00
2023-04-21T02:32:26.951Z,505.00
2023-04-21T02:33:26.864Z,508.00
2023-04-21T02:34:26.783Z,503.00
2023-04-21T02:35:26.787Z,507.00
2023-04-21T02:36:26.799Z,507.00
2023-04-21T02:37:26.821Z,502.00
2023-04-21T02:38:26.815Z,507.00
2023-04-21T02:39:26.826Z,511.00
2023-04-21T02:40:26.828Z,504.00
2023-04-21T02:41:26.811Z,506.00
2023-04-21T02:42:26.775Z,510.00
2023-04-21T02:43:26.761Z,504.00
2023-04-21T02:44:26.777Z,500.00
2023-04-21T02:45:26.802Z,504.00
2023-04-21T02:46:26.798Z,507.00
2023-04-21T02:47:26.959Z,507.00
2023-04-21T02:48:26.804Z,508.00
2023-04-21T02:49:26.745Z,508.00
2023-04-21T02:50:26.767Z,508.00
2023-04-21T02:51:26.770Z,507.00
2023-04-21T02:52:26.789Z,507.00
2023-04-21T02:53:27.426Z,508.00
2023-04-21T02:54:26.741Z,517.00
2023-04-21T02:55:26.762Z,508.00
2023-04-21T02:56:26.737Z,513.00
2023-04-21T02:57:26.733Z,512.00
2023-04-21T02:58:26.739Z,510.00
2023-04-21T02:59:26.725Z,509.00
2023-04-21T03:00:26.727Z,510.00
2023-04-21T03:01:26.843Z,504.00
2023-04-21T03:02:26.846Z,503.00
2023-04-21T03:03:26.851Z,511.00
2023-04-21T03:04:26.774Z,511.00
2023-04-21T03:05:26.681Z,509.00
2023-04-21T03:06:26.713Z,509.00
2023-04-21T03:07:26.701Z,510.00
2023-04-21T03:08:26.684Z,510.00
2023-04-21T03:09:26.667Z,509.00
2023-04-21T03:10:26.636Z,508.00
2023-04-21T03:11:26.684Z,505.00
2023-04-21T03:12:26.669Z,505.00
2023-04-21T03:13:26.680Z,502.00
2023-04-21T03:14:26.638Z,506.00
2023-04-21T03:15:26.665Z,509.00
2023-04-21T03:16:26.696Z,512.00
2023-04-21T03:17:26.687Z,509.00
2023-04-21T03:18:26.619Z,511.00
2023-04-21T03:19:26.653Z,504.00
2023-04-21T03:20:26.608Z,505.00
2023-04-21T03:21:26.605Z,509.00
2023-04-21T03:22:26.618Z,507.00
2023-04-21T03:23:26.649Z,509.00
2023-04-21T03:24:26.636Z,508.00
2023-04-21T03:25:26.655Z,500.00
2023-04-21T03:26:26.626Z,508.00
2023-04-21T03:27:26.618Z,504.00
2023-04-21T03:28:26.623Z,504.00
2023-04-21T03:29:26.598Z,505.00
2023-04-21T03:30:26.616Z,507.00
2023-04-21T03:31:26.602Z,506.00
2023-04-21T03:32:26.625Z,509.00
2023-04-21T03:33:26.593Z,508.00
2023-04-21T03:34:26.581Z,508.00
2023-04-21T03:35:26.570Z,505.00
2023-04-21T03:36:26.588Z,508.00
2023-04-21T03:37:26.603Z,509.00
2023-04-21T03:38:26.576Z,505.00
2023-04-21T03:39:26.869Z,503.00
2023-04-21T03:40:26.564Z,508.00
2023-04-21T03:41:26.550Z,506.00
2023-04-21T03:42:26.561Z,510.00
2023-04-21T03:43:26.567Z,511.00
2023-04-21T03:44:26.515Z,511.00
2023-04-21T03:45:26.516Z,507.00
2023-04-21T03:46:26.582Z,512.00
2023-04-21T03:47:26.541Z,505.00
2023-04-21T03:48:26.508Z,504.00
2023-04-21T03:49:26.528Z,502.00
2023-04-21T03:50:26.536Z,506.00
2023-04-21T03:51:26.526Z,508.00
2023-04-21T03:52:26.505Z,505.00
2023-04-21T03:53:26.515Z,502.00
2023-04-21T03:54:27.464Z,501.00
2023-04-21T03:55:26.498Z,506.00
2023-04-21T03:56:26.482Z,510.00
2023-04-21T03:57:26.463Z,515.00
2023-04-21T03:58:26.490Z,507.00
2023-04-21T03:59:26.456Z,509.00
2023-04-21T04:00:26.458Z,514.00
2023-04-21T04:01:26.451Z,513.00
2023-04-21T04:02:26.548Z,507.00
2023-04-21T04:03:26.627Z,510.00
2023-04-21T04:04:26.634Z,511.00
2023-04-21T04:05:26.486Z,509.00
2023-04-21T04:06:27.449Z,504.00
2023-04-21T04:07:26.483Z,507.00
2023-04-21T04:08:26.429Z,509.00
2023-04-21T04:09:26.436Z,507.00
2023-04-21T04:10:26.443Z,506.00
2023-04-21T04:11:26.452Z,506.00
2023-04-21T04:12:26.504Z,510.00
2023-04-21T04:13:26.464Z,507.00
2023-04-21T04:14:26.459Z,505.00
2023-04-21T04:15:26.455Z,507.00
2023-04-21T04:16:26.568Z,503.00
2023-04-21T04:17:26.486Z,500.00
2023-04-21T04:18:26.446Z,509.00
2023-04-21T04:19:26.470Z,506.00
2023-04-21T04:20:26.465Z,507.00
2023-04-21T04:21:26.470Z,503.00
2023-04-21T04:22:26.498Z,509.00
2023-04-21T04:23:26.482Z,505.00
2023-04-21T04:24:26.486Z,511.00
2023-04-21T04:25:26.469Z,503.00
2023-04-21T04:26:26.467Z,505.00
2023-04-21T04:27:26.486Z,504.00
2023-04-21T04:28:26.454Z,500.00
2023-04-21T04:29:26.477Z,502.00
2023-04-21T04:30:26.471Z,505.00
2023-04-21T04:31:26.476Z,513.00
2023-04-21T04:32:26.512Z,504.00
2023-04-21T04:33:26.478Z,508.00
2023-04-21T04:34:26.497Z,500.00
2023-04-21T04:35:26.514Z,504.00
2023-04-21T04:36:26.498Z,508.00
2023-04-21T04:37:26.516Z,508.00
2023-04-21T04:38:26.521Z,510.00
2023-04-21T04:39:26.526Z,508.00
2023-04-21T04:40:26.517Z,507.00
2023-04-21T04:41:26.519Z,507.00
2023-04-21T04:42:26.516Z,508.00
2023-04-21T04:43:26.537Z,511.00
2023-04-21T04:44:26.542Z,505.00
2023-04-21T04:45:26.508Z,505.00
2023-04-21T04:46:26.539Z,500.00
2023-04-21T04:47:26.654Z,508.00
2023-04-21T04:48:26.517Z,506.00
2023-04-21T04:49:26.500Z,505.00
2023-04-21T04:50:26.510Z,505.00
2023-04-21T04:51:26.533Z,501.00
2023-04-21T04:52:26.528Z,500.00
2023-04-21T04:53:26.507Z,503.00
2023-04-21T04:54:26.525Z,504.00
2023-04-21T04:55:27.490Z,502.00
2023-04-21T04:56:26.528Z,507.00
2023-04-21T04:57:26.546Z,500.00
2023-04-21T04:58:26.557Z,502.00
2023-04-21T04:59:29.044Z,501.00
2023-04-21T05:00:26.553Z,508.00
2023-04-21T05:01:26.560Z,500.00
2023-04-21T05:02:26.624Z,503.00
2023-04-21T05:03:26.650Z,502.00
2023-04-21T05:04:27.183Z,505.00
2023-04-21T05:05:26.476Z,505.00
2023-04-21T05:06:26.475Z,505.00
2023-04-21T05:07:26.511Z,505.00
2023-04-21T05:08:26.507Z,502.00
2023-04-21T05:09:26.490Z,501.00
2023-04-21T05:10:26.454Z,500.00
2023-04-21T05:11:26.501Z,504.00
2023-04-21T05:12:26.454Z,500.00
2023-04-21T05:13:26.442Z,505.00
2023-04-21T05:14:26.430Z,505.00
2023-04-21T05:15:26.444Z,513.00
2023-04-21T05:16:26.474Z,509.00
2023-04-21T05:17:26.464Z,509.00
2023-04-21T05:18:26.408Z,505.00
2023-04-21T05:19:26.408Z,506.00
2023-04-21T05:20:26.377Z,506.00
2023-04-21T05:21:26.384Z,500.00
2023-04-21T05:22:26.400Z,507.00
2023-04-21T05:23:26.365Z,513.00
2023-04-21T05:24:26.370Z,502.00
2023-04-21T05:25:26.351Z,500.00
2023-04-21T05:26:26.362Z,505.00
2023-04-21T05:27:26.335Z,508.00
2023-04-21T05:28:26.333Z,505.00
2023-04-21T05:29:26.320Z,512.00
2023-04-21T05:30:26.346Z,506.00
2023-04-21T05:31:26.435Z,506.00
2023-04-21T05:32:26.387Z,500.00
2023-04-21T05:33:26.281Z,507.00
2023-04-21T05:34:26.282Z,504.00
2023-04-21T05:35:26.268Z,500.00
2023-04-21T05:36:26.259Z,504.00
2023-04-21T05:37:26.293Z,508.00
2023-04-21T05:38:26.248Z,504.00
2023-04-21T05:39:26.262Z,503.00
2023-04-21T05:40:26.259Z,502.00
2023-04-21T05:41:26.232Z,511.00
2023-04-21T05:42:26.227Z,510.00
2023-04-21T05:43:26.237Z,513.00
2023-04-21T05:44:26.201Z,520.00
2023-04-21T05:45:26.230Z,514.00
2023-04-21T05:46:26.284Z,527.00
2023-04-21T05:47:26.296Z,537.00
2023-04-21T05:48:26.187Z,554.00
2023-04-21T05:49:26.212Z,562.00
2023-04-21T05:50:26.220Z,576.00
2023-04-21T05:51:26.153Z,591.00
2023-04-21T05:52:26.525Z,602.00
2023-04-21T05:53:26.180Z,604.00
2023-04-21T05:54:26.142Z,613.00
2023-04-21T05:55:26.191Z,626.00
2023-04-21T05:56:27.213Z,635.00
2023-04-21T05:57:26.546Z,634.00
2023-04-21T05:58:26.123Z,644.00
2023-04-21T05:59:26.100Z,659.00
2023-04-21T06:00:26.097Z,658.00
2023-04-21T06:01:26.093Z,658.00
2023-04-21T06:02:26.210Z,664.00
2023-04-21T06:03:26.252Z,662.00
2023-04-21T06:04:26.937Z,664.00
2023-04-21T06:05:26.251Z,679.00
2023-04-21T06:06:26.247Z,694.00
2023-04-21T06:07:26.299Z,666.00
2023-04-21T06:08:26.342Z,683.00
2023-04-21T06:09:26.338Z,673.00
2023-04-21T06:10:26.451Z,670.00
2023-04-21T06:11:26.374Z,664.00
2023-04-21T06:12:26.359Z,668.00
2023-04-21T06:13:26.351Z,671.00
2023-04-21T06:14:26.361Z,678.00
2023-04-21T06:15:26.334Z,667.00
2023-04-21T06:16:26.370Z,665.00
2023-04-21T06:17:26.378Z,658.00
2023-04-21T06:18:26.375Z,681.00
2023-04-21T06:19:26.408Z,661.00
2023-04-21T06:20:26.370Z,672.00
2023-04-21T06:21:26.385Z,664.00
2023-04-21T06:22:26.390Z,667.00
2023-04-21T06:23:26.348Z,669.00
2023-04-21T06:24:26.352Z,657.00
2023-04-21T06:25:26.348Z,662.00
2023-04-21T06:26:26.358Z,665.00
2023-04-21T06:27:26.362Z,653.00
2023-04-21T06:28:26.332Z,658.00
2023-04-21T06:29:26.586Z,657.00
2023-04-21T06:30:26.356Z,658.00
2023-04-21T06:31:26.353Z,661.00
2023-04-21T06:32:26.386Z,654.00
2023-04-21T06:33:26.326Z,659.00
2023-04-21T06:34:26.341Z,660.00
2023-04-21T06:35:26.373Z,657.00
2023-04-21T06:36:26.310Z,662.00
2023-04-21T06:37:26.530Z,652.00
2023-04-21T06:38:26.342Z,653.00
2023-04-21T06:39:26.317Z,652.00
2023-04-21T06:40:26.316Z,652.00
2023-04-21T06:41:26.347Z,645.00
2023-04-21T06:42:26.292Z,650.00
2023-04-21T06:43:26.291Z,652.00
2023-04-21T06:44:26.302Z,650.00
2023-04-21T06:45:26.300Z,654.00
2023-04-21T06:46:26.366Z,650.00
2023-04-21T06:47:26.671Z,650.00
2023-04-21T06:48:26.311Z,644.00
2023-04-21T06:49:26.304Z,648.00
2023-04-21T06:50:26.424Z,647.00
2023-04-21T06:51:26.332Z,653.00
2023-04-21T06:52:26.538Z,662.00
2023-04-21T06:53:26.290Z,700.00
2023-04-21T06:54:26.304Z,728.00
2023-04-21T06:55:26.301Z,745.00
2023-04-21T06:56:26.300Z,765.00
2023-04-21T06:57:27.021Z,762.00
2023-04-21T06:58:26.330Z,783.00
2023-04-21T06:59:26.357Z,767.00
2023-04-21T07:00:26.380Z,801.00
2023-04-21T07:01:26.467Z,782.00
2023-04-21T07:02:26.613Z,827.00
2023-04-21T07:03:26.550Z,845.00
2023-04-21T07:04:26.563Z,879.00
2023-04-21T07:05:26.559Z,861.00
2023-04-21T07:06:26.594Z,849.00
2023-04-21T07:07:26.658Z,858.00
2023-04-21T07:08:26.654Z,840.00
2023-04-21T07:09:26.684Z,828.00
2023-04-21T07:10:26.900Z,739.00
2023-04-21T07:11:26.718Z,797.00
2023-04-21T07:12:27.059Z,831.00
2023-04-21T07:13:26.787Z,853.00
2023-04-21T07:14:26.851Z,868.00
2023-04-21T07:15:26.933Z,887.00
2023-04-21T07:16:27.028Z,916.00
2023-04-21T07:17:27.106Z,1071.00
2023-04-21T07:18:27.057Z,1109.00
2023-04-21T07:19:27.118Z,1095.00
2023-04-21T07:20:27.161Z,1094.00
2023-04-21T07:21:27.242Z,1097.00
2023-04-21T07:22:27.288Z,1098.00
2023-04-21T07:23:27.333Z,1098.00
2023-04-21T07:24:27.396Z,1120.00
2023-04-21T07:25:27.505Z,1131.00
2023-04-21T07:26:27.493Z,1145.00
2023-04-21T07:27:27.579Z,1168.00
2023-04-21T07:28:27.555Z,1176.00
2023-04-21T07:29:27.587Z,1199.00
2023-04-21T07:30:27.756Z,1200.00
2023-04-21T07:31:27.706Z,1207.00
2023-04-21T07:32:27.789Z,1207.00
2023-04-21T07:33:27.799Z,1231.00
2023-04-21T07:34:27.847Z,1213.00
2023-04-21T07:35:27.975Z,1227.00
2023-04-21T07:36:27.952Z,1219.00
2023-04-21T07:37:28.002Z,1224.00
2023-04-21T07:38:28.600Z,1208.00
2023-04-21T07:39:28.100Z,1209.00
2023-04-21T07:40:28.150Z,1216.00
2023-04-21T07:41:28.210Z,1223.00
2023-04-21T07:42:28.551Z,1215.00
2023-04-21T07:43:28.254Z,1233.00
2023-04-21T07:44:28.328Z,1238.00
2023-04-21T07:45:28.310Z,1263.00
2023-04-21T07:46:28.461Z,1259.00
2023-04-21T07:47:28.573Z,1279.00
2023-04-21T07:48:28.404Z,1303.00
2023-04-21T07:49:28.451Z,1306.00
2023-04-21T07:50:28.509Z,1322.00
2023-04-21T07:51:28.506Z,1327.00
2023-04-21T07:52:28.539Z,1329.00
2023-04-21T07:53:28.566Z,1345.00
2023-04-21T07:54:30.327Z,1349.00
2023-04-21T07:55:28.572Z,1380.00
2023-04-21T07:56:28.542Z,1405.00
2023-04-21T07:57:28.530Z,1488.00
2023-04-21T07:58:28.520Z,1477.00
2023-04-21T07:59:28.531Z,1469.00
2023-04-21T08:00:28.513Z,1474.00
2023-04-21T08:01:28.513Z,1491.00
2023-04-21T08:02:28.598Z,1498.00
2023-04-21T08:03:28.742Z,1496.00
2023-04-21T08:04:28.566Z,1523.00
2023-04-21T08:05:32.120Z,1528.00
2023-04-21T08:06:29.660Z,1530.00
2023-04-21T08:07:28.454Z,1535.00
2023-04-21T08:08:30.738Z,1542.00
2023-04-21T08:09:28.465Z,1576.00
2023-04-21T08:10:28.470Z,1603.00
2023-04-21T08:11:28.429Z,1610.00
2023-04-21T08:12:28.418Z,1620.00
2023-04-21T08:13:28.418Z,1620.00
2023-04-21T08:14:28.417Z,1636.00
2023-04-21T08:15:28.411Z,1647.00
2023-04-21T08:16:28.448Z,1647.00
2023-04-21T08:17:28.461Z,1658.00
2023-04-21T08:18:28.357Z,1653.00
2023-04-21T08:19:28.348Z,1677.00
2023-04-21T08:20:28.407Z,1681.00
2023-04-21T08:21:30.816Z,1694.00
2023-04-21T08:22:28.465Z,1696.00
2023-04-21T08:23:28.355Z,1700.00
2023-04-21T08:24:28.362Z,1712.00
2023-04-21T08:25:28.312Z,1729.00
2023-04-21T08:26:28.349Z,1767.00
2023-04-21T08:27:28.347Z,1772.00
2023-04-21T08:28:28.316Z,1781.00
2023-04-21T08:29:28.315Z,1830.00
2023-04-21T08:30:28.395Z,1863.00
2023-04-21T08:31:28.440Z,1858.00
2023-04-21T08:32:28.408Z,1859.00
2023-04-21T08:33:28.278Z,1863.00
2023-04-21T08:34:28.489Z,1865.00
2023-04-21T08:35:28.263Z,1878.00
2023-04-21T08:36:29.898Z,1868.00
2023-04-21T08:37:28.266Z,1884.00
2023-04-21T08:38:28.253Z,1883.00
2023-04-21T08:39:28.240Z,1875.00
2023-04-21T08:40:28.221Z,1873.00
2023-04-21T08:41:28.252Z,1880.00
2023-04-21T08:42:28.582Z,1942.00
2023-04-21T08:43:28.210Z,1946.00
2023-04-21T08:44:28.275Z,1932.00
2023-04-21T08:45:28.230Z,1929.00
2023-04-21T08:46:28.213Z,1940.00
2023-04-21T08:47:28.220Z,1924.00
2023-04-21T08:48:28.188Z,1907.00
2023-04-21T08:49:28.139Z,1912.00
2023-04-21T08:50:28.160Z,1886.00
2023-04-21T08:51:28.148Z,1880.00
2023-04-21T08:52:28.571Z,1838.00
2023-04-21T08:53:28.143Z,1806.00
2023-04-21T08:54:29.847Z,1777.00
2023-04-21T08:55:28.121Z,1769.00
2023-04-21T08:56:28.109Z,1764.00
2023-04-21T08:57:28.092Z,1757.00
2023-04-21T08:58:28.085Z,1777.00
2023-04-21T08:59:28.077Z,1791.00
2023-04-21T09:00:28.060Z,1805.00
2023-04-21T09:01:28.203Z,1827.00
2023-04-21T09:02:28.177Z,1845.00
2023-04-21T09:03:28.300Z,1846.00
2023-04-21T09:04:28.345Z,1831.00
2023-04-21T09:05:28.295Z,1806.00
2023-04-21T09:06:28.081Z,1782.00
2023-04-21T09:07:28.053Z,1771.00
2023-04-21T09:08:28.047Z,1765.00
2023-04-21T09:09:28.015Z,1774.00
2023-04-21T09:10:27.999Z,1797.00
2023-04-21T09:11:28.010Z,1809.00
2023-04-21T09:12:28.051Z,1820.00
2023-04-21T09:13:28.013Z,1805.00
2023-04-21T09:14:28.034Z,1789.00
2023-04-21T09:15:28.009Z,1783.00
2023-04-21T09:16:28.031Z,1766.00
2023-04-21T09:17:28.117Z,1771.00
2023-04-21T09:18:28.015Z,1760.00
2023-04-21T09:19:28.040Z,1753.00
2023-04-21T09:20:28.013Z,1741.00
2023-04-21T09:21:29.080Z,1716.00
2023-04-21T09:22:28.033Z,1709.00
2023-04-21T09:23:28.078Z,1698.00
2023-04-21T09:24:28.027Z,1696.00
2023-04-21T09:25:28.043Z,1681.00
2023-04-21T09:26:28.037Z,1697.00
2023-04-21T09:27:28.023Z,1706.00
2023-04-21T09:28:28.044Z,1721.00
2023-04-21T09:29:28.063Z,1725.00
2023-04-21T09:30:28.113Z,1710.00
2023-04-21T09:31:28.204Z,1731.00
2023-04-21T09:32:28.271Z,1710.00
2023-04-21T09:33:34.317Z,1708.00
2023-04-21T09:34:30.099Z,1710.00
2023-04-21T09:35:28.229Z,1710.00
2023-04-21T09:36:28.276Z,1705.00
2023-04-21T09:37:28.290Z,1682.00
2023-04-21T09:38:28.600Z,1676.00
2023-04-21T09:39:40.600Z,1668.00
2023-04-21T09:40:29.395Z,1669.00
2023-04-21T09:41:28.387Z,1669.00
2023-04-21T09:42:28.387Z,1633.00
2023-04-21T09:43:28.611Z,1609.00
2023-04-21T09:44:28.353Z,1611.00
2023-04-21T09:45:38.949Z,1623.00
2023-04-21T09:46:29.401Z,1624.00
2023-04-21T09:47:28.398Z,1541.00
2023-04-21T09:48:28.334Z,1502.00
2023-04-21T09:49:28.325Z,1491.00
2023-04-21T09:51:03.852Z,1520.00
2023-04-21T09:51:42.834Z,1434.00
2023-04-21T09:52:29.296Z,1315.00
2023-04-21T09:53:28.598Z,1298.00
2023-04-21T09:54:30.356Z,1315.00
2023-04-21T09:55:28.268Z,1243.00
2023-04-21T09:56:28.262Z,1138.00
2023-04-21T09:57:28.298Z,1000.00
2023-04-21T09:58:28.254Z,1001.00
2023-04-21T09:59:28.295Z,968.00
2023-04-21T10:00:28.803Z,643.00
2023-04-21T10:01:28.262Z,622.00
2023-04-21T10:02:28.351Z,624.00
2023-04-21T10:03:28.473Z,570.00
2023-04-21T10:04:28.844Z,459.00
2023-04-21T10:05:28.260Z,469.00
2023-04-21T10:06:28.239Z,494.00
2023-04-21T10:07:28.204Z,515.00
2023-04-21T10:08:28.257Z,506.00
2023-04-21T10:09:28.251Z,595.00
2023-04-21T10:10:28.306Z,507.00
2023-04-21T10:11:28.280Z,584.00
2023-04-21T10:12:28.322Z,655.00
2023-04-21T10:13:28.319Z,624.00
2023-04-21T10:14:28.329Z,620.00
2023-04-21T10:15:28.340Z,778.00
2023-04-21T10:16:28.401Z,819.00
2023-04-21T10:17:28.370Z,897.00
2023-04-21T10:18:28.391Z,920.00
2023-04-21T10:19:28.394Z,961.00
2023-04-21T10:20:28.406Z,695.00
2023-04-21T10:21:28.399Z,869.00
2023-04-21T10:22:28.384Z,905.00
2023-04-21T10:23:28.398Z,923.00
2023-04-21T10:24:28.383Z,860.00
2023-04-21T10:25:28.375Z,928.00
2023-04-21T10:26:28.403Z,979.00
2023-04-21T10:27:28.380Z,780.00
2023-04-21T10:28:28.379Z,626.00
2023-04-21T10:29:29.114Z,614.00
2023-04-21T10:30:28.408Z,566.00
2023-04-21T10:31:28.382Z,674.00
2023-04-21T10:32:28.376Z,683.00
2023-04-21T10:33:28.364Z,769.00
2023-04-21T10:34:28.347Z,775.00
2023-04-21T10:35:28.378Z,891.00
2023-04-21T10:36:28.336Z,913.00
2023-04-21T10:37:28.351Z,906.00
2023-04-21T10:38:28.623Z,952.00
2023-04-21T10:39:28.321Z,980.00
2023-04-21T10:40:42.525Z,986.00
2023-04-21T10:41:29.293Z,989.00
2023-04-21T10:42:28.297Z,996.00
2023-04-21T10:43:28.280Z,1009.00
2023-04-21T10:44:28.262Z,1023.00
2023-04-21T10:45:28.270Z,1034.00
2023-04-21T10:46:28.294Z,1055.00
2023-04-21T10:47:28.269Z,1069.00
2023-04-21T10:48:28.228Z,1083.00
2023-04-21T10:49:28.239Z,1087.00
2023-04-21T10:50:28.236Z,1068.00
2023-04-21T10:51:28.508Z,1092.00
2023-04-21T10:52:28.220Z,1076.00
2023-04-21T10:53:28.635Z,1089.00
2023-04-21T10:54:28.193Z,1087.00
2023-04-21T10:55:28.188Z,1118.00
2023-04-21T10:56:28.177Z,1107.00
2023-04-21T10:57:28.143Z,1110.00
2023-04-21T10:58:28.156Z,1116.00
2023-04-21T10:59:28.151Z,1106.00
2023-04-21T11:00:28.133Z,1116.00
2023-04-21T11:01:29.377Z,1107.00
2023-04-21T11:02:28.270Z,1126.00
2023-04-21T11:03:28.320Z,1117.00
2023-04-21T11:04:28.708Z,1135.00
2023-04-21T11:05:28.128Z,1128.00
2023-04-21T11:06:28.105Z,1142.00
2023-04-21T11:07:28.084Z,1131.00
2023-04-21T11:08:28.118Z,1130.00
2023-04-21T11:09:28.095Z,1133.00
2023-04-21T11:10:28.081Z,1140.00
2023-04-21T11:11:28.069Z,1143.00
2023-04-21T11:12:28.054Z,1134.00
2023-04-21T11:13:28.058Z,1147.00
2023-04-21T11:14:28.035Z,1137.00
2023-04-21T11:15:28.032Z,1140.00
2023-04-21T11:16:28.040Z,1133.00
2023-04-21T11:17:28.030Z,1142.00
2023-04-21T11:18:28.034Z,1144.00
2023-04-21T11:19:28.035Z,1142.00
2023-04-21T11:20:28.037Z,1145.00
2023-04-21T11:21:28.029Z,1139.00
2023-04-21T11:22:28.039Z,1158.00
2023-04-21T11:23:28.041Z,1143.00
2023-04-21T11:24:28.049Z,1149.00
2023-04-21T11:25:28.040Z,1143.00
2023-04-21T11:26:28.054Z,1152.00
2023-04-21T11:27:28.636Z,1146.00
2023-04-21T11:28:28.136Z,1163.00
2023-04-21T11:29:28.085Z,1161.00
2023-04-21T11:30:28.093Z,1158.00
2023-04-21T11:31:28.711Z,1151.00
2023-04-21T11:32:28.158Z,1155.00
2023-04-21T11:33:28.145Z,1166.00
2023-04-21T11:34:28.101Z,1171.00
2023-04-21T11:35:28.077Z,1157.00
2023-04-21T11:36:28.080Z,1171.00
2023-04-21T11:37:28.295Z,1164.00
2023-04-21T11:38:28.065Z,1158.00
2023-04-21T11:39:28.084Z,1159.00
2023-04-21T11:40:28.109Z,1144.00
2023-04-21T11:41:28.062Z,1148.00
2023-04-21T11:42:28.076Z,1161.00
2023-04-21T11:43:28.090Z,1157.00
2023-04-21T11:44:28.066Z,1163.00
2023-04-21T11:45:28.076Z,1157.00
2023-04-21T11:46:28.103Z,1161.00
2023-04-21T11:47:28.236Z,1151.00
2023-04-21T11:48:28.076Z,1165.00
2023-04-21T11:49:28.069Z,1150.00
2023-04-21T11:50:28.085Z,1157.00
2023-04-21T11:51:28.090Z,1159.00
2023-04-21T11:52:28.100Z,1149.00
2023-04-21T11:53:28.053Z,1154.00
2023-04-21T11:54:28.041Z,1153.00
2023-04-21T11:55:28.038Z,1150.00
2023-04-21T11:56:28.040Z,1156.00
2023-04-21T11:57:28.037Z,1149.00
2023-04-21T11:58:28.088Z,1150.00
2023-04-21T11:59:28.009Z,1155.00
2023-04-21T12:00:28.004Z,1148.00
2023-04-21T12:01:28.034Z,1161.00
2023-04-21T12:02:28.106Z,1155.00
2023-04-21T12:03:28.105Z,1140.00
2023-04-21T12:04:28.181Z,1154.00
2023-04-21T12:05:28.114Z,1155.00
2023-04-21T12:06:28.009Z,1156.00
2023-04-21T12:07:27.988Z,1154.00
2023-04-21T12:08:28.046Z,1147.00
2023-04-21T12:09:28.054Z,1154.00
2023-04-21T12:10:28.059Z,1153.00
2023-04-21T12:11:28.074Z,1154.00
2023-04-21T12:12:28.064Z,1159.00
2023-04-21T12:13:28.109Z,1163.00
2023-04-21T12:14:28.142Z,1177.00
2023-04-21T12:15:28.149Z,1200.00
2023-04-21T12:16:28.289Z,1180.00
2023-04-21T12:17:28.230Z,1202.00
2023-04-21T12:18:28.285Z,1207.00
2023-04-21T12:19:28.269Z,1197.00
2023-04-21T12:20:28.338Z,1242.00